Terminal Aerodrome Forecast
Issued by NWS Charleston, WV

Current Version | Previous Version | Graphics & Text | Print | Product List | Glossary On
Versions: 1 2 3 4 5 6 7 8 9 10 11 12 13 14 15 16 17 18 19 20 21 22 23 24 25 26 27 28
000
FTUS41 KRLX 301900 AAA
TAFBKW
TAF AMD
KBKW 301937Z 3020/3118 32012G21KT P6SM -SHSN BKN035
     FM310300 31010G16KT P6SM BKN020
     FM310700 31008G14KT P6SM SCT015
     FM311700 29007KT P6SM SCT200=

USA.gov is the U.S. government's official web portal to all federal, state and local government web resources and services.